sensor_id;sensor_type;location;lat;lon;timestamp;P1;durP1;ratioP1;P2;durP2;ratioP2
40150;SDS011;25866;52.420;10.640;2023-11-19T00:01:22;2.17;;;1.10;;
40150;SDS011;25866;52.420;10.640;2023-11-19T00:03:49;1.40;;;0.97;;
40150;SDS011;25866;52.420;10.640;2023-11-19T00:06:15;4.43;;;1.17;;
40150;SDS011;25866;52.420;10.640;2023-11-19T00:08:42;1.07;;;0.97;;
40150;SDS011;25866;52.420;10.640;2023-11-19T00:11:08;1.17;;;0.90;;
40150;SDS011;25866;52.420;10.640;2023-11-19T00:13:34;1.00;;;0.90;;
40150;SDS011;25866;52.420;10.640;2023-11-19T00:16:00;1.50;;;0.87;;
40150;SDS011;25866;52.420;10.640;2023-11-19T00:18:26;1.20;;;1.00;;
40150;SDS011;25866;52.420;10.640;2023-11-19T00:20:51;1.00;;;0.90;;
40150;SDS011;25866;52.420;10.640;2023-11-19T00:23:17;3.13;;;0.90;;
40150;SDS011;25866;52.420;10.640;2023-11-19T00:25:43;2.13;;;1.23;;
40150;SDS011;25866;52.420;10.640;2023-11-19T00:28:09;3.00;;;1.00;;
40150;SDS011;25866;52.420;10.640;2023-11-19T00:30:35;1.70;;;1.10;;
40150;SDS011;25866;52.420;10.640;2023-11-19T00:33:01;1.03;;;0.93;;
40150;SDS011;25866;52.420;10.640;2023-11-19T00:35:26;1.00;;;0.90;;
40150;SDS011;25866;52.420;10.640;2023-11-19T00:37:52;0.97;;;0.93;;
40150;SDS011;25866;52.420;10.640;2023-11-19T00:40:19;1.03;;;0.93;;
40150;SDS011;25866;52.420;10.640;2023-11-19T00:42:47;2.10;;;1.00;;
40150;SDS011;25866;52.420;10.640;2023-11-19T00:45:13;1.10;;;1.00;;
40150;SDS011;25866;52.420;10.640;2023-11-19T00:47:39;1.00;;;0.80;;
40150;SDS011;25866;52.420;10.640;2023-11-19T00:50:05;1.20;;;1.10;;
40150;SDS011;25866;52.420;10.640;2023-11-19T00:52:34;3.83;;;0.90;;
40150;SDS011;25866;52.420;10.640;2023-11-19T00:55:00;1.53;;;0.97;;
40150;SDS011;25866;52.420;10.640;2023-11-19T00:57:26;2.60;;;1.00;;
40150;SDS011;25866;52.420;10.640;2023-11-19T00:59:52;0.97;;;0.90;;
40150;SDS011;25866;52.420;10.640;2023-11-19T01:02:17;3.57;;;1.10;;
40150;SDS011;25866;52.420;10.640;2023-11-19T01:04:43;2.33;;;1.00;;
40150;SDS011;25866;52.420;10.640;2023-11-19T01:07:09;1.33;;;0.90;;
40150;SDS011;25866;52.420;10.640;2023-11-19T01:09:38;1.40;;;0.90;;
40150;SDS011;25866;52.420;10.640;2023-11-19T01:12:03;0.70;;;0.60;;
40150;SDS011;25866;52.420;10.640;2023-11-19T01:14:30;1.00;;;0.70;;
40150;SDS011;25866;52.420;10.640;2023-11-19T01:16:56;1.10;;;1.00;;
40150;SDS011;25866;52.420;10.640;2023-11-19T01:19:26;2.23;;;0.80;;
40150;SDS011;25866;52.420;10.640;2023-11-19T01:21:53;0.77;;;0.60;;
40150;SDS011;25866;52.420;10.640;2023-11-19T01:24:19;0.80;;;0.70;;
40150;SDS011;25866;52.420;10.640;2023-11-19T01:26:45;0.80;;;0.80;;
40150;SDS011;25866;52.420;10.640;2023-11-19T01:29:12;0.90;;;0.77;;
40150;SDS011;25866;52.420;10.640;2023-11-19T01:31:41;1.17;;;0.60;;
40150;SDS011;25866;52.420;10.640;2023-11-19T01:34:07;0.70;;;0.60;;
40150;SDS011;25866;52.420;10.640;2023-11-19T01:36:34;0.80;;;0.60;;
40150;SDS011;25866;52.420;10.640;2023-11-19T01:39:00;1.00;;;0.80;;
40150;SDS011;25866;52.420;10.640;2023-11-19T01:41:26;1.33;;;0.60;;
40150;SDS011;25866;52.420;10.640;2023-11-19T01:43:51;0.47;;;0.47;;
40150;SDS011;25866;52.420;10.640;2023-11-19T01:46:17;0.93;;;0.63;;
40150;SDS011;25866;52.420;10.640;2023-11-19T01:48:45;1.23;;;0.50;;
40150;SDS011;25866;52.420;10.640;2023-11-19T01:51:14;2.13;;;0.80;;
40150;SDS011;25866;52.420;10.640;2023-11-19T01:53:41;0.70;;;0.60;;
40150;SDS011;25866;52.420;10.640;2023-11-19T01:56:08;0.90;;;0.60;;
40150;SDS011;25866;52.420;10.640;2023-11-19T01:58:37;0.50;;;0.50;;
40150;SDS011;25866;52.420;10.640;2023-11-19T02:01:04;0.73;;;0.60;;
40150;SDS011;25866;52.420;10.640;2023-11-19T02:03:33;0.70;;;0.60;;
40150;SDS011;25866;52.420;10.640;2023-11-19T02:06:02;0.90;;;0.60;;
40150;SDS011;25866;52.420;10.640;2023-11-19T02:08:29;0.63;;;0.57;;
40150;SDS011;25866;52.420;10.640;2023-11-19T02:10:55;1.37;;;0.70;;
40150;SDS011;25866;52.420;10.640;2023-11-19T02:13:23;0.90;;;0.70;;
40150;SDS011;25866;52.420;10.640;2023-11-19T02:15:50;0.53;;;0.50;;
40150;SDS011;25866;52.420;10.640;2023-11-19T02:18:19;1.90;;;0.60;;
40150;SDS011;25866;52.420;10.640;2023-11-19T02:20:47;0.67;;;0.60;;
40150;SDS011;25866;52.420;10.640;2023-11-19T02:23:14;0.40;;;0.40;;
40150;SDS011;25866;52.420;10.640;2023-11-19T02:25:40;0.90;;;0.70;;
40150;SDS011;25866;52.420;10.640;2023-11-19T02:28:06;0.70;;;0.60;;
40150;SDS011;25866;52.420;10.640;2023-11-19T02:30:33;1.10;;;0.70;;
40150;SDS011;25866;52.420;10.640;2023-11-19T02:32:59;0.50;;;0.50;;
40150;SDS011;25866;52.420;10.640;2023-11-19T02:35:28;1.37;;;0.60;;
40150;SDS011;25866;52.420;10.640;2023-11-19T02:37:56;0.70;;;0.50;;
40150;SDS011;25866;52.420;10.640;2023-11-19T02:40:23;1.53;;;0.50;;
40150;SDS011;25866;52.420;10.640;2023-11-19T02:42:49;2.60;;;0.50;;
40150;SDS011;25866;52.420;10.640;2023-11-19T02:45:20;0.63;;;0.50;;
40150;SDS011;25866;52.420;10.640;2023-11-19T02:47:47;1.47;;;0.70;;
40150;SDS011;25866;52.420;10.640;2023-11-19T02:50:13;0.97;;;0.43;;
40150;SDS011;25866;52.420;10.640;2023-11-19T02:52:44;0.83;;;0.50;;
40150;SDS011;25866;52.420;10.640;2023-11-19T02:55:11;0.60;;;0.60;;
40150;SDS011;25866;52.420;10.640;2023-11-19T02:57:40;0.87;;;0.70;;
40150;SDS011;25866;52.420;10.640;2023-11-19T03:00:20;0.67;;;0.50;;
40150;SDS011;25866;52.420;10.640;2023-11-19T03:02:50;2.07;;;0.80;;
40150;SDS011;25866;52.420;10.640;2023-11-19T03:05:24;1.37;;;0.70;;
40150;SDS011;25866;52.420;10.640;2023-11-19T03:07:51;0.90;;;0.80;;
40150;SDS011;25866;52.420;10.640;2023-11-19T03:10:17;2.03;;;0.90;;
40150;SDS011;25866;52.420;10.640;2023-11-19T03:12:44;1.40;;;1.00;;
40150;SDS011;25866;52.420;10.640;2023-11-19T03:15:13;2.53;;;0.90;;
40150;SDS011;25866;52.420;10.640;2023-11-19T03:17:39;2.80;;;0.90;;
40150;SDS011;25866;52.420;10.640;2023-11-19T03:20:06;0.83;;;0.67;;
40150;SDS011;25866;52.420;10.640;2023-11-19T03:22:39;0.50;;;0.50;;
40150;SDS011;25866;52.420;10.640;2023-11-19T03:25:06;0.93;;;0.60;;
40150;SDS011;25866;52.420;10.640;2023-11-19T03:27:34;1.60;;;0.80;;
40150;SDS011;25866;52.420;10.640;2023-11-19T03:30:01;2.30;;;0.60;;
40150;SDS011;25866;52.420;10.640;2023-11-19T03:32:33;2.40;;;0.67;;
40150;SDS011;25866;52.420;10.640;2023-11-19T03:35:00;5.83;;;0.87;;
40150;SDS011;25866;52.420;10.640;2023-11-19T03:37:27;2.20;;;0.50;;
40150;SDS011;25866;52.420;10.640;2023-11-19T03:39:59;1.47;;;0.50;;
40150;SDS011;25866;52.420;10.640;2023-11-19T03:42:28;0.63;;;0.50;;
40150;SDS011;25866;52.420;10.640;2023-11-19T03:44:57;0.50;;;0.40;;
40150;SDS011;25866;52.420;10.640;2023-11-19T03:47:23;0.53;;;0.50;;
40150;SDS011;25866;52.420;10.640;2023-11-19T03:49:49;0.57;;;0.50;;
40150;SDS011;25866;52.420;10.640;2023-11-19T03:52:16;0.50;;;0.40;;
40150;SDS011;25866;52.420;10.640;2023-11-19T03:54:42;1.00;;;0.50;;
40150;SDS011;25866;52.420;10.640;2023-11-19T03:57:08;1.53;;;0.57;;
40150;SDS011;25866;52.420;10.640;2023-11-19T03:59:35;0.57;;;0.57;;
40150;SDS011;25866;52.420;10.640;2023-11-19T04:02:01;2.70;;;0.70;;
40150;SDS011;25866;52.420;10.640;2023-11-19T04:04:27;1.00;;;0.60;;
40150;SDS011;25866;52.420;10.640;2023-11-19T04:06:56;0.70;;;0.70;;
40150;SDS011;25866;52.420;10.640;2023-11-19T04:09:23;1.00;;;0.80;;
40150;SDS011;25866;52.420;10.640;2023-11-19T04:11:48;0.70;;;0.70;;
40150;SDS011;25866;52.420;10.640;2023-11-19T04:14:14;0.70;;;0.60;;
40150;SDS011;25866;52.420;10.640;2023-11-19T04:16:43;1.10;;;1.00;;
40150;SDS011;25866;52.420;10.640;2023-11-19T04:19:11;1.10;;;0.90;;
40150;SDS011;25866;52.420;10.640;2023-11-19T04:21:39;2.67;;;1.00;;
40150;SDS011;25866;52.420;10.640;2023-11-19T04:24:07;1.07;;;0.97;;
40150;SDS011;25866;52.420;10.640;2023-11-19T04:26:33;0.93;;;0.70;;
40150;SDS011;25866;52.420;10.640;2023-11-19T04:29:00;1.00;;;0.80;;
40150;SDS011;25866;52.420;10.640;2023-11-19T04:31:29;0.80;;;0.80;;
40150;SDS011;25866;52.420;10.640;2023-11-19T04:33:58;1.00;;;0.90;;
40150;SDS011;25866;52.420;10.640;2023-11-19T04:36:25;1.73;;;0.93;;
40150;SDS011;25866;52.420;10.640;2023-11-19T04:38:51;4.53;;;1.00;;
40150;SDS011;25866;52.420;10.640;2023-11-19T04:41:16;1.33;;;1.07;;
40150;SDS011;25866;52.420;10.640;2023-11-19T04:43:42;1.10;;;0.87;;
40150;SDS011;25866;52.420;10.640;2023-11-19T04:46:09;2.90;;;1.00;;
40150;SDS011;25866;52.420;10.640;2023-11-19T04:48:35;1.15;;;1.02;;
40150;SDS011;25866;52.420;10.640;2023-11-19T04:51:01;0.95;;;0.85;;
40150;SDS011;25866;52.420;10.640;2023-11-19T04:53:29;1.25;;;1.10;;
40150;SDS011;25866;52.420;10.640;2023-11-19T04:55:55;1.63;;;1.20;;
40150;SDS011;25866;52.420;10.640;2023-11-19T04:58:20;1.93;;;1.10;;
40150;SDS011;25866;52.420;10.640;2023-11-19T05:00:46;3.03;;;1.43;;
40150;SDS011;25866;52.420;10.640;2023-11-19T05:03:12;1.60;;;1.20;;
40150;SDS011;25866;52.420;10.640;2023-11-19T05:05:37;1.43;;;1.20;;
40150;SDS011;25866;52.420;10.640;2023-11-19T05:08:03;2.03;;;1.30;;
40150;SDS011;25866;52.420;10.640;2023-11-19T05:10:30;2.07;;;1.30;;
40150;SDS011;25866;52.420;10.640;2023-11-19T05:12:55;2.47;;;1.33;;
40150;SDS011;25866;52.420;10.640;2023-11-19T05:15:21;1.63;;;1.50;;
40150;SDS011;25866;52.420;10.640;2023-11-19T05:17:47;1.90;;;1.60;;
40150;SDS011;25866;52.420;10.640;2023-11-19T05:20:13;2.60;;;1.70;;
40150;SDS011;25866;52.420;10.640;2023-11-19T05:22:42;2.05;;;1.63;;
40150;SDS011;25866;52.420;10.640;2023-11-19T05:25:08;4.00;;;1.85;;
40150;SDS011;25866;52.420;10.640;2023-11-19T05:27:34;2.70;;;2.13;;
40150;SDS011;25866;52.420;10.640;2023-11-19T05:30:01;5.40;;;2.27;;
40150;SDS011;25866;52.420;10.640;2023-11-19T05:32:28;2.30;;;2.10;;
40150;SDS011;25866;52.420;10.640;2023-11-19T05:34:53;4.93;;;2.30;;
40150;SDS011;25866;52.420;10.640;2023-11-19T05:37:19;3.33;;;2.40;;
40150;SDS011;25866;52.420;10.640;2023-11-19T05:39:45;4.03;;;2.47;;
40150;SDS011;25866;52.420;10.640;2023-11-19T05:42:10;4.33;;;2.50;;
40150;SDS011;25866;52.420;10.640;2023-11-19T05:44:36;3.00;;;2.55;;
40150;SDS011;25866;52.420;10.640;2023-11-19T05:47:03;5.78;;;2.70;;
40150;SDS011;25866;52.420;10.640;2023-11-19T05:49:29;6.37;;;2.77;;
40150;SDS011;25866;52.420;10.640;2023-11-19T05:51:54;7.57;;;2.97;;
40150;SDS011;25866;52.420;10.640;2023-11-19T05:54:21;4.55;;;2.33;;
40150;SDS011;25866;52.420;10.640;2023-11-19T05:56:49;3.33;;;2.70;;
40150;SDS011;25866;52.420;10.640;2023-11-19T05:59:15;4.05;;;2.60;;
40150;SDS011;25866;52.420;10.640;2023-11-19T06:01:43;2.50;;;2.30;;
40150;SDS011;25866;52.420;10.640;2023-11-19T06:04:09;4.97;;;2.35;;
40150;SDS011;25866;52.420;10.640;2023-11-19T06:06:35;4.18;;;2.10;;
40150;SDS011;25866;52.420;10.640;2023-11-19T06:09:01;6.65;;;2.15;;
40150;SDS011;25866;52.420;10.640;2023-11-19T06:11:28;3.08;;;2.30;;
40150;SDS011;25866;52.420;10.640;2023-11-19T06:13:53;4.35;;;2.33;;
40150;SDS011;25866;52.420;10.640;2023-11-19T06:16:19;4.60;;;2.40;;
40150;SDS011;25866;52.420;10.640;2023-11-19T06:18:45;3.60;;;2.50;;
40150;SDS011;25866;52.420;10.640;2023-11-19T06:21:11;3.22;;;2.20;;
40150;SDS011;25866;52.420;10.640;2023-11-19T06:23:37;3.60;;;1.90;;
40150;SDS011;25866;52.420;10.640;2023-11-19T06:26:03;6.22;;;2.00;;
40150;SDS011;25866;52.420;10.640;2023-11-19T06:28:30;4.15;;;2.00;;
40150;SDS011;25866;52.420;10.640;2023-11-19T06:30:56;5.00;;;2.17;;
40150;SDS011;25866;52.420;10.640;2023-11-19T06:33:23;3.75;;;2.17;;
40150;SDS011;25866;52.420;10.640;2023-11-19T06:35:49;4.05;;;1.90;;
40150;SDS011;25866;52.420;10.640;2023-11-19T06:38:15;3.70;;;1.98;;
40150;SDS011;25866;52.420;10.640;2023-11-19T06:40:41;4.80;;;2.10;;
40150;SDS011;25866;52.420;10.640;2023-11-19T06:43:06;3.20;;;2.05;;
40150;SDS011;25866;52.420;10.640;2023-11-19T06:45:34;3.08;;;2.10;;
40150;SDS011;25866;52.420;10.640;2023-11-19T06:48:01;2.40;;;2.20;;
40150;SDS011;25866;52.420;10.640;2023-11-19T06:50:29;3.90;;;2.00;;
40150;SDS011;25866;52.420;10.640;2023-11-19T06:52:55;5.03;;;2.43;;
40150;SDS011;25866;52.420;10.640;2023-11-19T06:55:21;10.43;;;2.13;;
40150;SDS011;25866;52.420;10.640;2023-11-19T06:57:47;5.53;;;2.20;;
40150;SDS011;25866;52.420;10.640;2023-11-19T07:00:12;3.55;;;2.33;;
40150;SDS011;25866;52.420;10.640;2023-11-19T07:02:38;3.75;;;2.17;;
40150;SDS011;25866;52.420;10.640;2023-11-19T07:05:04;7.30;;;2.33;;
40150;SDS011;25866;52.420;10.640;2023-11-19T07:07:31;6.75;;;2.45;;
40150;SDS011;25866;52.420;10.640;2023-11-19T07:09:57;6.18;;;2.97;;
40150;SDS011;25866;52.420;10.640;2023-11-19T07:12:23;6.07;;;3.00;;
40150;SDS011;25866;52.420;10.640;2023-11-19T07:14:51;4.60;;;2.75;;
40150;SDS011;25866;52.420;10.640;2023-11-19T07:17:18;11.23;;;3.08;;
40150;SDS011;25866;52.420;10.640;2023-11-19T07:19:45;7.95;;;3.10;;
40150;SDS011;25866;52.420;10.640;2023-11-19T07:22:11;3.08;;;2.78;;
40150;SDS011;25866;52.420;10.640;2023-11-19T07:24:39;8.57;;;2.95;;
40150;SDS011;25866;52.420;10.640;2023-11-19T07:27:05;10.88;;;3.45;;
40150;SDS011;25866;52.420;10.640;2023-11-19T07:29:31;8.15;;;3.40;;
40150;SDS011;25866;52.420;10.640;2023-11-19T07:31:57;9.07;;;3.22;;
40150;SDS011;25866;52.420;10.640;2023-11-19T07:34:23;8.43;;;3.78;;
40150;SDS011;25866;52.420;10.640;2023-11-19T07:36:49;12.23;;;3.65;;
40150;SDS011;25866;52.420;10.640;2023-11-19T07:39:15;11.23;;;4.03;;
40150;SDS011;25866;52.420;10.640;2023-11-19T07:41:41;11.27;;;3.63;;
40150;SDS011;25866;52.420;10.640;2023-11-19T07:44:06;10.90;;;4.22;;
40150;SDS011;25866;52.420;10.640;2023-11-19T07:46:32;13.48;;;4.40;;
40150;SDS011;25866;52.420;10.640;2023-11-19T07:48:58;12.98;;;5.00;;
40150;SDS011;25866;52.420;10.640;2023-11-19T07:51:25;12.75;;;4.75;;
40150;SDS011;25866;52.420;10.640;2023-11-19T07:53:50;20.35;;;5.28;;
40150;SDS011;25866;52.420;10.640;2023-11-19T07:56:16;17.58;;;5.75;;
40150;SDS011;25866;52.420;10.640;2023-11-19T07:58:42;15.25;;;6.50;;
40150;SDS011;25866;52.420;10.640;2023-11-19T08:01:07;24.88;;;7.28;;
40150;SDS011;25866;52.420;10.640;2023-11-19T08:03:34;22.50;;;6.15;;
40150;SDS011;25866;52.420;10.640;2023-11-19T08:05:59;20.70;;;6.40;;
40150;SDS011;25866;52.420;10.640;2023-11-19T08:08:26;17.75;;;5.90;;
40150;SDS011;25866;52.420;10.640;2023-11-19T08:10:54;28.90;;;5.82;;
40150;SDS011;25866;52.420;10.640;2023-11-19T08:13:21;25.33;;;6.55;;
40150;SDS011;25866;52.420;10.640;2023-11-19T08:15:48;22.58;;;6.20;;
40150;SDS011;25866;52.420;10.640;2023-11-19T08:18:14;24.30;;;6.05;;
40150;SDS011;25866;52.420;10.640;2023-11-19T08:20:39;20.40;;;5.78;;
40150;SDS011;25866;52.420;10.640;2023-11-19T08:23:06;24.38;;;6.38;;
40150;SDS011;25866;52.420;10.640;2023-11-19T08:25:32;26.08;;;5.53;;
40150;SDS011;25866;52.420;10.640;2023-11-19T08:28:01;20.98;;;5.82;;
40150;SDS011;25866;52.420;10.640;2023-11-19T08:30:28;28.42;;;5.57;;
40150;SDS011;25866;52.420;10.640;2023-11-19T08:32:54;27.05;;;5.05;;
40150;SDS011;25866;52.420;10.640;2023-11-19T08:35:20;26.73;;;5.43;;
40150;SDS011;25866;52.420;10.640;2023-11-19T08:37:46;19.30;;;4.35;;
40150;SDS011;25866;52.420;10.640;2023-11-19T08:40:11;24.48;;;4.75;;
40150;SDS011;25866;52.420;10.640;2023-11-19T08:42:40;23.90;;;4.57;;
40150;SDS011;25866;52.420;10.640;2023-11-19T08:45:06;19.23;;;3.97;;
40150;SDS011;25866;52.420;10.640;2023-11-19T08:47:35;19.60;;;4.43;;
40150;SDS011;25866;52.420;10.640;2023-11-19T08:50:01;21.20;;;4.00;;
40150;SDS011;25866;52.420;10.640;2023-11-19T08:52:27;18.55;;;3.75;;
40150;SDS011;25866;52.420;10.640;2023-11-19T08:54:52;25.10;;;4.68;;
40150;SDS011;25866;52.420;10.640;2023-11-19T08:57:18;22.42;;;4.20;;
40150;SDS011;25866;52.420;10.640;2023-11-19T08:59:44;20.52;;;3.50;;
40150;SDS011;25866;52.420;10.640;2023-11-19T09:02:10;25.73;;;4.28;;
40150;SDS011;25866;52.420;10.640;2023-11-19T09:04:36;26.75;;;4.13;;
40150;SDS011;25866;52.420;10.640;2023-11-19T09:07:02;20.75;;;3.88;;
40150;SDS011;25866;52.420;10.640;2023-11-19T09:09:28;24.77;;;4.20;;
40150;SDS011;25866;52.420;10.640;2023-11-19T09:11:55;21.83;;;4.32;;
40150;SDS011;25866;52.420;10.640;2023-11-19T09:14:20;33.22;;;4.75;;
40150;SDS011;25866;52.420;10.640;2023-11-19T09:16:51;23.13;;;4.20;;
40150;SDS011;25866;52.420;10.640;2023-11-19T09:19:17;21.30;;;4.70;;
40150;SDS011;25866;52.420;10.640;2023-11-19T09:21:43;24.75;;;4.28;;
40150;SDS011;25866;52.420;10.640;2023-11-19T09:24:09;22.30;;;4.13;;
40150;SDS011;25866;52.420;10.640;2023-11-19T09:26:34;24.33;;;4.22;;
40150;SDS011;25866;52.420;10.640;2023-11-19T09:29:01;28.55;;;4.38;;
40150;SDS011;25866;52.420;10.640;2023-11-19T09:31:27;37.03;;;5.28;;
40150;SDS011;25866;52.420;10.640;2023-11-19T09:33:52;22.55;;;4.78;;
40150;SDS011;25866;52.420;10.640;2023-11-19T09:36:18;27.05;;;5.05;;
40150;SDS011;25866;52.420;10.640;2023-11-19T09:38:44;32.42;;;5.68;;
40150;SDS011;25866;52.420;10.640;2023-11-19T09:41:10;21.85;;;4.18;;
40150;SDS011;25866;52.420;10.640;2023-11-19T09:43:42;20.10;;;4.72;;
40150;SDS011;25866;52.420;10.640;2023-11-19T09:46:10;27.50;;;4.95;;
40150;SDS011;25866;52.420;10.640;2023-11-19T09:48:38;23.38;;;4.22;;
40150;SDS011;25866;52.420;10.640;2023-11-19T09:51:08;26.92;;;4.95;;
40150;SDS011;25866;52.420;10.640;2023-11-19T09:53:35;22.55;;;4.93;;
40150;SDS011;25866;52.420;10.640;2023-11-19T09:56:03;24.40;;;4.63;;
40150;SDS011;25866;52.420;10.640;2023-11-19T09:58:30;23.58;;;4.55;;
40150;SDS011;25866;52.420;10.640;2023-11-19T10:00:57;22.60;;;4.20;;
40150;SDS011;25866;52.420;10.640;2023-11-19T10:03:24;25.15;;;4.57;;
40150;SDS011;25866;52.420;10.640;2023-11-19T10:05:51;19.77;;;4.00;;
40150;SDS011;25866;52.420;10.640;2023-11-19T10:08:19;23.38;;;4.65;;
40150;SDS011;25866;52.420;10.640;2023-11-19T10:10:45;27.02;;;5.15;;
40150;SDS011;25866;52.420;10.640;2023-11-19T10:13:10;29.45;;;4.50;;
40150;SDS011;25866;52.420;10.640;2023-11-19T10:15:36;23.13;;;4.63;;
40150;SDS011;25866;52.420;10.640;2023-11-19T10:18:02;23.60;;;4.35;;
40150;SDS011;25866;52.420;10.640;2023-11-19T10:20:35;25.48;;;4.78;;
40150;SDS011;25866;52.420;10.640;2023-11-19T10:23:01;26.38;;;5.18;;
40150;SDS011;25866;52.420;10.640;2023-11-19T10:25:28;28.88;;;4.18;;
40150;SDS011;25866;52.420;10.640;2023-11-19T10:27:55;24.05;;;4.47;;
40150;SDS011;25866;52.420;10.640;2023-11-19T10:30:22;27.30;;;5.18;;
40150;SDS011;25866;52.420;10.640;2023-11-19T10:35:31;25.55;;;4.90;;
40150;SDS011;25866;52.420;10.640;2023-11-19T10:38:18;26.15;;;5.53;;
40150;SDS011;25866;52.420;10.640;2023-11-19T10:40:43;23.85;;;4.13;;
40150;SDS011;25866;52.420;10.640;2023-11-19T10:43:09;20.13;;;4.13;;
40150;SDS011;25866;52.420;10.640;2023-11-19T10:45:38;23.80;;;4.85;;
40150;SDS011;25866;52.420;10.640;2023-11-19T10:48:04;32.47;;;4.88;;
40150;SDS011;25866;52.420;10.640;2023-11-19T10:50:38;26.17;;;4.13;;
40150;SDS011;25866;52.420;10.640;2023-11-19T10:53:05;27.90;;;4.40;;
40150;SDS011;25866;52.420;10.640;2023-11-19T10:55:35;19.75;;;4.55;;
40150;SDS011;25866;52.420;10.640;2023-11-19T10:58:07;27.27;;;5.25;;
40150;SDS011;25866;52.420;10.640;2023-11-19T11:03:29;24.50;;;4.43;;
40150;SDS011;25866;52.420;10.640;2023-11-19T11:06:04;28.23;;;4.93;;
40150;SDS011;25866;52.420;10.640;2023-11-19T11:08:30;30.13;;;5.25;;
40150;SDS011;25866;52.420;10.640;2023-11-19T11:10:57;23.08;;;4.20;;
40150;SDS011;25866;52.420;10.640;2023-11-19T11:13:23;31.73;;;5.57;;
40150;SDS011;25866;52.420;10.640;2023-11-19T11:15:50;19.98;;;4.55;;
40150;SDS011;25866;52.420;10.640;2023-11-19T11:18:16;26.90;;;5.00;;
40150;SDS011;25866;52.420;10.640;2023-11-19T11:20:45;24.23;;;4.68;;
40150;SDS011;25866;52.420;10.640;2023-11-19T11:29:03;32.88;;;5.72;;
40150;SDS011;25866;52.420;10.640;2023-11-19T11:39:35;21.95;;;4.97;;
40150;SDS011;25866;52.420;10.640;2023-11-19T11:45:16;17.30;;;3.53;;
40150;SDS011;25866;52.420;10.640;2023-11-19T11:50:11;21.27;;;4.13;;
40150;SDS011;25866;52.420;10.640;2023-11-19T11:55:24;23.15;;;4.43;;
40150;SDS011;25866;52.420;10.640;2023-11-19T11:57:50;23.52;;;3.75;;
40150;SDS011;25866;52.420;10.640;2023-11-19T12:03:01;29.48;;;4.15;;
40150;SDS011;25866;52.420;10.640;2023-11-19T12:05:29;27.58;;;4.28;;
40150;SDS011;25866;52.420;10.640;2023-11-19T12:07:56;20.42;;;3.88;;
40150;SDS011;25866;52.420;10.640;2023-11-19T12:10:25;23.08;;;4.57;;
40150;SDS011;25866;52.420;10.640;2023-11-19T12:12:58;20.58;;;4.35;;
40150;SDS011;25866;52.420;10.640;2023-11-19T12:15:24;18.17;;;4.03;;
40150;SDS011;25866;52.420;10.640;2023-11-19T12:17:51;22.30;;;4.72;;
40150;SDS011;25866;52.420;10.640;2023-11-19T12:20:18;21.48;;;4.20;;
40150;SDS011;25866;52.420;10.640;2023-11-19T12:22:45;26.05;;;5.15;;
40150;SDS011;25866;52.420;10.640;2023-11-19T12:25:14;22.45;;;4.20;;
40150;SDS011;25866;52.420;10.640;2023-11-19T12:27:48;23.58;;;5.55;;
40150;SDS011;25866;52.420;10.640;2023-11-19T12:32:50;22.63;;;4.70;;
40150;SDS011;25866;52.420;10.640;2023-11-19T12:35:18;18.98;;;3.90;;
40150;SDS011;25866;52.420;10.640;2023-11-19T12:37:45;23.73;;;4.50;;
40150;SDS011;25866;52.420;10.640;2023-11-19T12:42:42;19.80;;;3.95;;
40150;SDS011;25866;52.420;10.640;2023-11-19T12:45:09;18.67;;;4.07;;
40150;SDS011;25866;52.420;10.640;2023-11-19T12:47:40;19.33;;;3.97;;
40150;SDS011;25866;52.420;10.640;2023-11-19T12:50:06;22.58;;;4.32;;
40150;SDS011;25866;52.420;10.640;2023-11-19T12:52:36;24.45;;;4.28;;
40150;SDS011;25866;52.420;10.640;2023-11-19T12:55:23;21.20;;;3.85;;
40150;SDS011;25866;52.420;10.640;2023-11-19T12:57:55;31.33;;;5.50;;
40150;SDS011;25866;52.420;10.640;2023-11-19T13:00:23;33.38;;;4.20;;
40150;SDS011;25866;52.420;10.640;2023-11-19T13:02:52;25.20;;;4.68;;
40150;SDS011;25866;52.420;10.640;2023-11-19T13:08:08;21.45;;;3.75;;
40150;SDS011;25866;52.420;10.640;2023-11-19T13:10:53;18.17;;;4.70;;
40150;SDS011;25866;52.420;10.640;2023-11-19T13:13:19;25.13;;;4.28;;
40150;SDS011;25866;52.420;10.640;2023-11-19T13:15:44;25.73;;;4.60;;
40150;SDS011;25866;52.420;10.640;2023-11-19T13:18:11;26.08;;;4.45;;
40150;SDS011;25866;52.420;10.640;2023-11-19T13:20:37;24.58;;;4.40;;
40150;SDS011;25866;52.420;10.640;2023-11-19T13:23:04;24.23;;;4.53;;
40150;SDS011;25866;52.420;10.640;2023-11-19T13:25:32;22.10;;;4.82;;
40150;SDS011;25866;52.420;10.640;2023-11-19T13:27:58;21.00;;;4.95;;
40150;SDS011;25866;52.420;10.640;2023-11-19T13:30:24;26.15;;;4.30;;
40150;SDS011;25866;52.420;10.640;2023-11-19T13:32:51;25.85;;;4.32;;
40150;SDS011;25866;52.420;10.640;2023-11-19T13:35:17;20.05;;;4.00;;
40150;SDS011;25866;52.420;10.640;2023-11-19T13:37:44;24.60;;;5.20;;
40150;SDS011;25866;52.420;10.640;2023-11-19T13:40:10;20.48;;;3.85;;
40150;SDS011;25866;52.420;10.640;2023-11-19T13:42:39;25.27;;;4.60;;
40150;SDS011;25866;52.420;10.640;2023-11-19T13:45:14;23.95;;;3.75;;
40150;SDS011;25866;52.420;10.640;2023-11-19T13:47:43;23.10;;;4.75;;
40150;SDS011;25866;52.420;10.640;2023-11-19T13:50:10;29.98;;;4.25;;
40150;SDS011;25866;52.420;10.640;2023-11-19T13:52:37;30.15;;;5.00;;
40150;SDS011;25866;52.420;10.640;2023-11-19T13:55:07;23.85;;;4.85;;
40150;SDS011;25866;52.420;10.640;2023-11-19T13:57:35;24.75;;;4.32;;
40150;SDS011;25866;52.420;10.640;2023-11-19T14:00:01;21.00;;;4.13;;
40150;SDS011;25866;52.420;10.640;2023-11-19T14:02:32;23.25;;;4.38;;
40150;SDS011;25866;52.420;10.640;2023-11-19T14:04:58;22.13;;;4.75;;
40150;SDS011;25866;52.420;10.640;2023-11-19T14:07:24;26.95;;;4.30;;
40150;SDS011;25866;52.420;10.640;2023-11-19T14:09:49;22.80;;;4.35;;
40150;SDS011;25866;52.420;10.640;2023-11-19T14:12:15;24.77;;;4.15;;
40150;SDS011;25866;52.420;10.640;2023-11-19T14:14:41;27.80;;;4.03;;
40150;SDS011;25866;52.420;10.640;2023-11-19T14:17:07;27.17;;;5.22;;
40150;SDS011;25866;52.420;10.640;2023-11-19T14:19:33;21.08;;;3.95;;
40150;SDS011;25866;52.420;10.640;2023-11-19T14:21:59;25.45;;;4.07;;
40150;SDS011;25866;52.420;10.640;2023-11-19T14:24:25;22.50;;;4.53;;
40150;SDS011;25866;52.420;10.640;2023-11-19T14:26:51;19.63;;;3.67;;
40150;SDS011;25866;52.420;10.640;2023-11-19T14:29:17;23.10;;;4.60;;
40150;SDS011;25866;52.420;10.640;2023-11-19T14:31:42;16.70;;;3.95;;
40150;SDS011;25866;52.420;10.640;2023-11-19T14:34:08;19.50;;;4.25;;
40150;SDS011;25866;52.420;10.640;2023-11-19T14:36:34;31.17;;;9.35;;
40150;SDS011;25866;52.420;10.640;2023-11-19T14:39:00;30.10;;;7.15;;
40150;SDS011;25866;52.420;10.640;2023-11-19T14:41:25;25.92;;;4.45;;
40150;SDS011;25866;52.420;10.640;2023-11-19T14:43:51;30.85;;;4.78;;
40150;SDS011;25866;52.420;10.640;2023-11-19T14:46:17;19.52;;;4.20;;
40150;SDS011;25866;52.420;10.640;2023-11-19T14:48:43;21.90;;;4.15;;
40150;SDS011;25866;52.420;10.640;2023-11-19T14:51:09;16.85;;;3.75;;
40150;SDS011;25866;52.420;10.640;2023-11-19T14:53:34;20.73;;;4.22;;
40150;SDS011;25866;52.420;10.640;2023-11-19T14:56:01;22.67;;;4.60;;
40150;SDS011;25866;52.420;10.640;2023-11-19T14:58:27;24.33;;;5.10;;
40150;SDS011;25866;52.420;10.640;2023-11-19T15:00:53;22.83;;;4.13;;
40150;SDS011;25866;52.420;10.640;2023-11-19T15:03:18;18.65;;;4.45;;
40150;SDS011;25866;52.420;10.640;2023-11-19T15:05:44;26.50;;;4.43;;